Palacios, Argentina
Current Conditions -  °F | °C
As of 9:00 AM on Tuesday 27 Jan 2015 (Local Time) from SACO Reporting Station
Broken Clouds Broken Clouds  
Wind Chill: 66°   Ceiling: 5000
Heat Index: 66°   Visibility: 6mi
Dew Point: 64°   Wind: 7mph
Humidity: 94%   Direction: 290°WNW
Pressure: 29.85"   Gusts: NA
Location:  30.72°S, 61.62°W
Report Text: SACO 271200Z 29006KT 9999 SCT025 BKN05019/18 Q1011
Loading
Personal Weather Stations






























Interactive Weather Map New forecast layout! Learn more

10-Day Weather Forecast

Advertisements
Track Severe Weather on mobile